createdAt,value
2023-02-14T00:07:32.888Z,3.71
2023-02-14T00:17:38.243Z,3.64
2023-02-14T00:27:41.816Z,3.43
2023-02-14T00:37:47.056Z,3.19
2023-02-14T00:47:50.174Z,2.93
2023-02-14T00:57:54.665Z,2.75
2023-02-14T01:07:57.744Z,2.64
2023-02-14T01:18:02.327Z,2.69
2023-02-14T01:28:05.784Z,2.42
2023-02-14T01:38:10.340Z,2.36
2023-02-14T01:48:13.871Z,2.42
2023-02-14T01:58:21.572Z,2.27
2023-02-14T02:08:25.224Z,2.20
2023-02-14T02:18:38.276Z,2.26
2023-02-14T02:29:16.622Z,2.33
2023-02-14T02:39:40.203Z,2.19
2023-02-14T02:50:04.436Z,2.06
2023-02-14T03:00:11.418Z,1.87
2023-02-14T03:10:16.369Z,1.80
2023-02-14T03:20:23.840Z,0.83
2023-02-14T03:30:31.461Z,1.55
2023-02-14T03:40:39.615Z,1.57
2023-02-14T03:50:44.567Z,1.52
2023-02-14T04:00:49.581Z,1.38
2023-02-14T04:10:53.334Z,1.23
2023-02-14T04:20:58.018Z,1.32
2023-02-14T04:31:02.912Z,1.16
2023-02-14T04:41:07.707Z,1.05
2023-02-14T04:51:10.840Z,0.86
2023-02-14T05:01:15.482Z,0.93
2023-02-14T05:11:18.627Z,0.86
2023-02-14T05:21:23.478Z,0.73
2023-02-14T05:31:26.746Z,0.54
2023-02-14T05:41:31.327Z,0.64
2023-02-14T05:51:34.473Z,0.63
2023-02-14T06:01:38.918Z,0.58
2023-02-14T06:11:42.033Z,0.57
2023-02-14T06:21:46.514Z,0.61
2023-02-14T06:31:49.804Z,-0.13
2023-02-14T06:41:54.371Z,0.68
2023-02-14T06:51:57.554Z,1.05
2023-02-14T07:02:02.387Z,1.37
2023-02-14T07:12:05.743Z,3.26
2023-02-14T07:22:10.195Z,5.79
2023-02-14T07:32:13.629Z,7.31
2023-02-14T07:42:18.458Z,9.10
2023-02-14T07:52:21.612Z,9.96
2023-02-14T08:02:26.098Z,10.02
2023-02-14T08:12:46.767Z,9.71
2023-02-14T08:22:51.208Z,8.19
2023-02-14T08:32:54.938Z,8.84
2023-02-14T08:42:59.537Z,8.99
2023-02-14T08:53:02.711Z,8.93
2023-02-14T09:03:07.182Z,9.00
2023-02-14T09:13:10.383Z,8.23
2023-02-14T09:23:14.942Z,8.73
2023-02-14T09:33:18.304Z,9.49
2023-02-14T09:43:26.066Z,10.11
2023-02-14T09:53:31.374Z,11.15
2023-02-14T10:03:48.599Z,10.81
2023-02-14T10:13:54.253Z,10.00
2023-02-14T10:24:03.232Z,10.66
2023-02-14T10:34:10.206Z,10.34
2023-02-14T10:44:25.677Z,11.32
2023-02-14T10:54:38.104Z,11.20
2023-02-14T11:04:42.735Z,11.16
2023-02-14T11:14:46.476Z,11.42
2023-02-14T11:24:51.494Z,10.07
2023-02-14T11:34:59.140Z,10.93
2023-02-14T11:45:05.235Z,10.20
2023-02-14T11:55:08.643Z,10.73
2023-02-14T12:05:20.829Z,10.21
2023-02-14T12:15:36.674Z,11.90
2023-02-14T12:25:44.716Z,11.89
2023-02-14T12:35:55.143Z,11.89
2023-02-14T12:46:16.377Z,10.89
2023-02-14T12:56:28.445Z,11.71
2023-02-14T13:06:34.866Z,12.12
2023-02-14T13:16:42.774Z,11.58
2023-02-14T13:26:53.783Z,10.36
2023-02-14T13:36:58.651Z,11.79
2023-02-14T13:47:03.236Z,11.66
2023-02-14T13:57:28.282Z,11.83
2023-02-14T14:07:33.157Z,11.80
2023-02-14T14:17:37.552Z,12.26
2023-02-14T14:27:45.206Z,12.10
2023-02-14T14:37:50.629Z,12.31
2023-02-14T14:47:57.146Z,12.45
2023-02-14T14:58:04.088Z,11.99
2023-02-14T15:08:23.867Z,12.08
2023-02-14T15:18:27.211Z,12.02
2023-02-14T15:28:33.998Z,11.89
2023-02-14T15:38:39.626Z,11.62
2023-02-14T15:48:45.326Z,11.56
2023-02-14T15:58:49.526Z,11.27
2023-02-14T16:08:57.109Z,10.56
2023-02-14T16:19:01.747Z,10.02
2023-02-14T16:29:08.421Z,9.40
2023-02-14T16:39:15.913Z,8.81
2023-02-14T16:49:22.989Z,8.43
2023-02-14T16:59:26.179Z,7.95
2023-02-14T17:09:33.330Z,7.40
2023-02-14T17:19:36.483Z,7.24
2023-02-14T17:29:41.832Z,6.68
2023-02-14T17:39:44.977Z,6.15
2023-02-14T17:49:49.604Z,6.01
2023-02-14T17:59:53.693Z,5.94
2023-02-14T18:09:58.285Z,5.40
2023-02-14T18:20:01.472Z,5.09
2023-02-14T18:30:08.007Z,4.96
2023-02-14T18:40:16.392Z,4.49
2023-02-14T18:50:21.909Z,4.09
2023-02-14T19:00:27.145Z,3.59
2023-02-14T19:10:32.127Z,3.60
2023-02-14T19:20:36.018Z,3.72
2023-02-14T19:30:40.890Z,3.44
2023-02-14T19:40:45.843Z,3.55
2023-02-14T19:50:51.177Z,3.33
2023-02-14T20:00:58.785Z,3.13
2023-02-14T20:11:04.512Z,3.07
2023-02-14T20:21:08.557Z,2.87
2023-02-14T20:31:16.055Z,2.74
2023-02-14T20:41:19.507Z,2.74
2023-02-14T20:51:24.475Z,2.70
2023-02-14T21:01:27.815Z,2.61
2023-02-14T21:11:34.385Z,2.58
2023-02-14T21:21:38.648Z,2.47
2023-02-14T21:31:43.835Z,2.46
2023-02-14T21:41:47.255Z,2.49
2023-02-14T21:51:52.476Z,2.36
2023-02-14T22:01:56.049Z,2.12
2023-02-14T22:12:00.847Z,2.10
2023-02-14T22:22:04.404Z,2.10
2023-02-14T22:32:09.497Z,2.21
2023-02-14T22:42:12.722Z,1.96
2023-02-14T22:52:17.311Z,1.90
2023-02-14T23:02:20.438Z,1.72
2023-02-14T23:12:42.578Z,1.51
2023-02-14T23:22:45.743Z,1.54
2023-02-14T23:32:50.236Z,1.41
2023-02-14T23:42:54.828Z,1.38
2023-02-14T23:52:59.526Z,1.09
